Time;durP1;ratioP1;P1;durP2;ratioP2;P2;SDS_P1;SDS_P2;PMS_P1;PMS_P2;Temp;Humidity;BMP_temperature;BMP_pressure;BME280_temperature;BME280_humidity;BME280_pressure;Samples;Min_cycle;Max_cycle;Signal;HPM_P1;HPM_P2
2021/11/29 00:00:30;;;;;;;;;;;;;;;;;;1014274;29;1042;-17
2021/11/29 00:01:03;;;;;;;;;;;;;;;;;;1014483;29;860;-18
2021/11/29 00:01:36;;;;;;;;;;;;;;;;;;1013847;29;1297;-18
2021/11/29 00:02:08;;;;;;;;;;;;;;;;;;1014479;29;1310;-17
2021/11/29 00:02:42;;;;;;;;;;;;;;;;;;1016824;29;1407;-18
2021/11/29 00:03:14;;;;;;;;;;;;;;;;;;1018048;29;1175;-18
2021/11/29 00:03:45;;;;;;;;;;;;;;;;;;1017601;29;1063;-17
2021/11/29 00:04:15;;;;;;;;;;;;;;;;;;1017166;29;1318;-18
2021/11/29 00:04:46;;;;;;;;;;;;;;;;;;1017852;29;1001;-18
2021/11/29 00:05:17;;;;;;;;;;;;;;;;;;1017230;29;920;-18
2021/11/29 00:05:48;;;;;;;;;;;;;;;;;;1013625;29;1026;-18
2021/11/29 00:06:18;;;;;;;;;;;;;;;;;;1017934;29;1085;-18
2021/11/29 00:06:49;;;;;;;;;;;;;;;;;;1018174;29;891;-18
2021/11/29 00:07:19;;;;;;;;;;;;;;;;;;1018208;29;1073;-17
2021/11/29 00:07:50;;;;;;;;;;;;;;;;;;1018286;29;962;-17
2021/11/29 00:08:20;;;;;;;;;;;;;;;;;;1018182;29;1025;-17
2021/11/29 00:08:51;;;;;;;;;;;;;;;;;;1018347;29;948;-17
2021/11/29 00:09:21;;;;;;;;;;;;;;;;;;1017662;29;1111;-17
2021/11/29 00:09:51;;;;;;;;;;;;;;;;;;1017995;29;904;-17
2021/11/29 00:10:23;;;;;;;;;;;;;;;;;;1013549;29;988;-17
2021/11/29 00:10:54;;;;;;;;;;;;;;;;;;1013221;29;1102;-17
2021/11/29 00:11:24;;;;;;;;;;;;;;;;;;1013715;29;1196;-17
2021/11/29 00:11:54;;;;;;;;;;;;;;;;;;1013607;29;887;-17
2021/11/29 00:12:25;;;;;;;;;;;;;;;;;;1018402;29;1055;-17
2021/11/29 00:12:56;;;;;;;;;;;;;;;;;;1018101;29;938;-17
2021/11/29 00:13:26;;;;;;;;;;;;;;;;;;1018116;29;886;-17
2021/11/29 00:13:56;;;;;;;;;;;;;;;;;;1018171;29;975;-18
2021/11/29 00:14:27;;;;;;;;;;;;;;;;;;1018103;29;1051;-18
2021/11/29 00:14:57;;;;;;;;;;;;;;;;;;1018237;29;875;-17
2021/11/29 00:15:28;;;;;;;;;;;;;;;;;;1018529;29;919;-17
2021/11/29 00:15:58;;;;;;;;;;;;;;;;;;1017929;29;803;-18
2021/11/29 00:16:29;;;;;;;;;;;;;;;;;;1018360;29;1919;-17
2021/11/29 00:16:59;;;;;;;;;;;;;;;;;;1018114;29;894;-18
2021/11/29 00:17:30;;;;;;;;;;;;;;;;;;1018097;29;957;-18
2021/11/29 00:18:02;;;;;;;;;;;;;;;;;;1018386;29;985;-17
2021/11/29 00:18:32;;;;;;;;;;;;;;;;;;1017993;29;672;-17
2021/11/29 00:19:04;;;;;;;;;;;;;;;;;;1018395;29;951;-17
2021/11/29 00:19:35;;;;;;;;;;;;;;;;;;1018194;29;954;-17
2021/11/29 00:20:07;;;;;;;;;;;;;;;;;;1018108;29;870;-17
2021/11/29 00:20:37;;;;;;;;;;;;;;;;;;1018225;29;892;-17
2021/11/29 00:21:07;;;;;;;;;;;;;;;;;;1018273;29;932;-17
2021/11/29 00:21:38;;;;;;;;;;;;;;;;;;1018112;29;836;-17
2021/11/29 00:22:08;;;;;;;;;;;;;;;;;;1018466;29;973;-17
2021/11/29 00:22:39;;;;;;;;;;;;;;;;;;1017901;29;819;-17
2021/11/29 00:23:10;;;;;;;;;;;;;;;;;;1018402;29;920;-17
2021/11/29 00:23:44;;;;;;;;;;;;;;;;;;1018030;29;938;-17
2021/11/29 00:24:15;;;;;;;;;;;;;;;;;;1018086;29;850;-17
2021/11/29 00:24:45;;;;;;;;;;;;;;;;;;1018372;29;932;-17
2021/11/29 00:25:16;;;;;;;;;;;;;;;;;;1017897;29;835;-18
2021/11/29 00:25:46;;;;;;;;;;;;;;;;;;1018317;29;780;-17
2021/11/29 00:26:19;;;;;;;;;;;;;;;;;;1017567;29;1100;-17
2021/11/29 00:26:50;;;;;;;;;;;;;;;;;;1017981;29;1020;-17
2021/11/29 00:27:20;;;;;;;;;;;;;;;;;;1018319;29;991;-17
2021/11/29 00:27:51;;;;;;;;;;;;;;;;;;1018081;29;900;-18
2021/11/29 00:28:22;;;;;;;;;;;;;;;;;;1017282;29;906;-17
2021/11/29 00:28:53;;;;;;;;;;;;;;;;;;1009603;29;957;-17
2021/11/29 00:29:23;;;;;;;;;;;;;;;;;;1009405;29;1070;-17
2021/11/29 00:29:53;;;;;;;;;;;;;;;;;;1009844;29;965;-17
2021/11/29 00:30:24;;;;;;;;;;;;;;;;;;1013383;29;843;-17
2021/11/29 00:30:54;;;;;;;;;;;;;;;;;;1021708;29;835;-18
2021/11/29 00:31:25;;;;;;;;;;;;;;;;;;1021804;29;1140;-17
2021/11/29 00:31:55;;;;;;;;;;;;;;;;;;1021475;29;900;-17
2021/11/29 00:32:26;;;;;;;;;;;;;;;;;;1018197;29;1017;-18
2021/11/29 00:32:56;;;;;;;;;;;;;;;;;;1018099;29;1002;-17
2021/11/29 00:33:26;;;;;;;;;;;;;;;;;;1018184;29;998;-17
2021/11/29 00:33:57;;;;;;;;;;;;;;;;;;1018302;29;962;-17
2021/11/29 00:34:27;;;;;;;;;;;;;;;;;;1017951;29;946;-17
2021/11/29 00:34:58;;;;;;;;;;;;;;;;;;1018091;29;796;-17
2021/11/29 00:35:29;;;;;;;;;;;;;;;;;;1017500;29;956;-17
2021/11/29 00:35:59;;;;;;;;;;;;;;;;;;1017218;29;1057;-17
2021/11/29 00:36:30;;;;;;;;;;;;;;;;;;1017199;29;2007;-17
2021/11/29 00:37:00;;;;;;;;;;;;;;;;;;1017137;29;1187;-17
2021/11/29 00:37:31;;;;;;;;;;;;;;;;;;1018205;29;906;-18
2021/11/29 00:38:01;;;;;;;;;;;;;;;;;;1018347;29;974;-17
2021/11/29 00:38:32;;;;;;;;;;;;;;;;;;1017930;29;835;-17
2021/11/29 00:39:02;;;;;;;;;;;;;;;;;;1018248;29;928;-17
2021/11/29 00:39:33;;;;;;;;;;;;;;;;;;1018219;29;867;-17
2021/11/29 00:40:04;;;;;;;;;;;;;;;;;;1018043;29;811;-17
2021/11/29 00:40:36;;;;;;;;;;;;;;;;;;1018217;29;846;-17
2021/11/29 00:41:07;;;;;;;;;;;;;;;;;;1017896;29;967;-17
2021/11/29 00:41:37;;;;;;;;;;;;;;;;;;1018270;29;855;-17
2021/11/29 00:42:07;;;;;;;;;;;;;;;;;;1018358;29;1074;-17
2021/11/29 00:42:38;;;;;;;;;;;;;;;;;;1017816;29;819;-17
2021/11/29 00:43:09;;;;;;;;;;;;;;;;;;1017526;29;914;-17
2021/11/29 00:43:39;;;;;;;;;;;;;;;;;;1017297;29;1006;-18
2021/11/29 00:44:10;;;;;;;;;;;;;;;;;;1017464;29;985;-17
2021/11/29 00:44:40;;;;;;;;;;;;;;;;;;1017478;29;981;-17
2021/11/29 00:45:11;;;;;;;;;;;;;;;;;;1017882;29;1003;-17
2021/11/29 00:45:42;;;;;;;;;;;;;;;;;;1018144;29;1072;-17
2021/11/29 00:46:12;;;;;;;;;;;;;;;;;;1018080;29;984;-17
2021/11/29 00:46:43;;;;;;;;;;;;;;;;;;1017871;29;792;-17
2021/11/29 00:47:13;;;;;;;;;;;;;;;;;;1018214;29;966;-17
2021/11/29 00:47:43;;;;;;;;;;;;;;;;;;1017869;29;879;-17
2021/11/29 00:48:14;;;;;;;;;;;;;;;;;;1018348;29;1058;-18
2021/11/29 00:48:44;;;;;;;;;;;;;;;;;;1018116;29;900;-17
2021/11/29 00:49:15;;;;;;;;;;;;;;;;;;1017895;29;828;-17
2021/11/29 00:49:45;;;;;;;;;;;;;;;;;;1018182;29;935;-17
2021/11/29 00:50:17;;;;;;;;;;;;;;;;;;1017834;29;1005;-17
2021/11/29 00:50:48;;;;;;;;;;;;;;;;;;1018057;29;942;-17
2021/11/29 00:51:18;;;;;;;;;;;;;;;;;;1018193;29;969;-17
2021/11/29 00:51:49;;;;;;;;;;;;;;;;;;1017536;29;1354;-17
2021/11/29 00:52:19;;;;;;;;;;;;;;;;;;1017477;29;912;-17
2021/11/29 00:52:50;;;;;;;;;;;;;;;;;;1017100;29;977;-17
2021/11/29 00:53:20;;;;;;;;;;;;;;;;;;1017380;29;883;-17
2021/11/29 00:53:50;;;;;;;;;;;;;;;;;;1017422;29;932;-17
2021/11/29 00:54:21;;;;;;;;;;;;;;;;;;1017555;29;1321;-17
2021/11/29 00:54:51;;;;;;;;;;;;;;;;;;1018243;29;989;-17
2021/11/29 00:55:23;;;;;;;;;;;;;;;;;;1017647;29;978;-17
2021/11/29 00:55:53;;;;;;;;;;;;;;;;;;1016563;29;1013;-17
2021/11/29 00:56:24;;;;;;;;;;;;;;;;;;1017359;29;1986;-17
2021/11/29 00:56:54;;;;;;;;;;;;;;;;;;1017125;29;992;-17
2021/11/29 00:57:25;;;;;;;;;;;;;;;;;;1017613;29;1615;-17
2021/11/29 00:57:55;;;;;;;;;;;;;;;;;;1017972;29;1008;-17
2021/11/29 00:58:25;;;;;;;;;;;;;;;;;;1017928;29;938;-18
2021/11/29 00:58:56;;;;;;;;;;;;;;;;;;1018164;29;934;-17
2021/11/29 00:59:26;;;;;;;;;;;;;;;;;;1018079;29;863;-17
2021/11/29 00:59:57;;;;;;;;;;;;;;;;;;1017919;29;993;-17
2021/11/29 01:00:27;;;;;;;;;;;;;;;;;;1018394;29;888;-17
2021/11/29 01:00:58;;;;;;;;;;;;;;;;;;1017773;29;930;-17
2021/11/29 01:01:29;;;;;;;;;;;;;;;;;;1018323;29;1006;-17
2021/11/29 01:01:59;;;;;;;;;;;;;;;;;;1016749;29;1195;-17
2021/11/29 01:02:30;;;;;;;;;;;;;;;;;;1015310;29;1164;-17
2021/11/29 01:03:01;;;;;;;;;;;;;;;;;;1013372;29;1046;-17
2021/11/29 01:03:31;;;;;;;;;;;;;;;;;;1013335;29;1042;-17
2021/11/29 01:04:02;;;;;;;;;;;;;;;;;;1013836;29;1191;-17
2021/11/29 01:04:32;;;;;;;;;;;;;;;;;;1014197;29;1038;-17
2021/11/29 01:05:26;;;;;;;;;;;;;;;;;;1013797;29;934;-17
2021/11/29 01:05:56;;;;;;;;;;;;;;;;;;1013887;29;811;-18
2021/11/29 01:06:27;;;;;;;;;;;;;;;;;;1014056;29;1058;-18
2021/11/29 01:06:57;;;;;;;;;;;;;;;;;;1013736;29;972;-17
2021/11/29 01:07:28;;;;;;;;;;;;;;;;;;1014165;29;891;-17
2021/11/29 01:09:09;;;;;;;;;;;;;;;;;;1014599;29;978;-17
2021/11/29 01:09:40;;;;;;;;;;;;;;;;;;1014301;29;959;-17
2021/11/29 01:10:12;;;;;;;;;;;;;;;;;;1013556;29;1365;-17
2021/11/29 01:10:43;;;;;;;;;;;;;;;;;;1013857;29;1154;-18
2021/11/29 01:11:14;;;;;;;;;;;;;;;;;;1014225;29;1003;-17
2021/11/29 01:11:44;;;;;;;;;;;;;;;;;;1013140;29;1305;-17
2021/11/29 01:12:15;;;;;;;;;;;;;;;;;;1014028;29;1300;-18
2021/11/29 01:12:46;;;;;;;;;;;;;;;;;;1013722;29;1069;-17
2021/11/29 01:13:16;;;;;;;;;;;;;;;;;;1014223;29;923;-17
2021/11/29 01:13:47;;;;;;;;;;;;;;;;;;1014222;29;1055;-17
2021/11/29 01:14:17;;;;;;;;;;;;;;;;;;1013424;29;669;-17
2021/11/29 01:14:47;;;;;;;;;;;;;;;;;;1013856;29;973;-17
2021/11/29 01:15:21;;;;;;;;;;;;;;;;;;1013597;29;994;-17
2021/11/29 01:15:52;;;;;;;;;;;;;;;;;;1013609;29;946;-17
2021/11/29 01:16:22;;;;;;;;;;;;;;;;;;1014153;29;1907;-17
2021/11/29 01:16:52;;;;;;;;;;;;;;;;;;1013767;29;965;-17
2021/11/29 01:17:23;;;;;;;;;;;;;;;;;;1013919;29;1334;-17
2021/11/29 01:17:53;;;;;;;;;;;;;;;;;;1014030;29;990;-17
2021/11/29 01:18:24;;;;;;;;;;;;;;;;;;1013201;29;943;-18
2021/11/29 01:18:55;;;;;;;;;;;;;;;;;;1009352;29;899;-17
2021/11/29 01:19:26;;;;;;;;;;;;;;;;;;1009339;29;986;-18
2021/11/29 01:19:56;;;;;;;;;;;;;;;;;;1009616;29;986;-17
2021/11/29 01:20:26;;;;;;;;;;;;;;;;;;1013643;29;1009;-17
2021/11/29 01:20:57;;;;;;;;;;;;;;;;;;1013910;29;855;-17
2021/11/29 01:21:28;;;;;;;;;;;;;;;;;;1014240;29;1030;-17
2021/11/29 01:21:58;;;;;;;;;;;;;;;;;;1013860;29;895;-17
2021/11/29 01:22:28;;;;;;;;;;;;;;;;;;1014171;29;974;-17
2021/11/29 01:22:59;;;;;;;;;;;;;;;;;;1014285;29;996;-17
2021/11/29 01:23:29;;;;;;;;;;;;;;;;;;1013910;29;1588;-17
2021/11/29 01:24:00;;;;;;;;;;;;;;;;;;1014104;29;935;-17
2021/11/29 01:24:31;;;;;;;;;;;;;;;;;;1013934;29;951;-17
2021/11/29 01:25:01;;;;;;;;;;;;;;;;;;1013807;29;812;-17
2021/11/29 01:25:32;;;;;;;;;;;;;;;;;;1014192;29;930;-17
2021/11/29 01:26:03;;;;;;;;;;;;;;;;;;1013787;29;1051;-17
2021/11/29 01:26:33;;;;;;;;;;;;;;;;;;1014197;29;892;-17
2021/11/29 01:27:04;;;;;;;;;;;;;;;;;;1013824;29;963;-17
2021/11/29 01:27:34;;;;;;;;;;;;;;;;;;1013951;29;878;-17
2021/11/29 01:28:05;;;;;;;;;;;;;;;;;;1014035;29;868;-17
2021/11/29 01:28:37;;;;;;;;;;;;;;;;;;1014061;29;943;-18
2021/11/29 01:29:07;;;;;;;;;;;;;;;;;;1017113;29;897;-17
2021/11/29 01:29:38;;;;;;;;;;;;;;;;;;1013404;29;1021;-17
2021/11/29 01:30:09;;;;;;;;;;;;;;;;;;1013000;29;935;-17
2021/11/29 01:30:40;;;;;;;;;;;;;;;;;;1013611;29;997;-17
2021/11/29 01:31:10;;;;;;;;;;;;;;;;;;1013125;29;988;-17
2021/11/29 01:31:41;;;;;;;;;;;;;;;;;;1014080;29;827;-17
2021/11/29 01:32:11;;;;;;;;;;;;;;;;;;1014102;29;899;-18
2021/11/29 01:32:41;;;;;;;;;;;;;;;;;;1013887;29;840;-17
2021/11/29 01:33:13;;;;;;;;;;;;;;;;;;1014090;29;907;-17
2021/11/29 01:33:43;;;;;;;;;;;;;;;;;;1017216;29;1004;-17
2021/11/29 01:34:13;;;;;;;;;;;;;;;;;;1016642;29;1393;-17
2021/11/29 01:34:44;;;;;;;;;;;;;;;;;;1017309;29;1090;-18
2021/11/29 01:35:15;;;;;;;;;;;;;;;;;;1016797;29;1050;-17
2021/11/29 01:35:45;;;;;;;;;;;;;;;;;;1013027;29;1035;-17
2021/11/29 01:36:16;;;;;;;;;;;;;;;;;;1013224;29;1934;-17
2021/11/29 01:36:47;;;;;;;;;;;;;;;;;;1013242;29;933;-17
2021/11/29 01:37:18;;;;;;;;;;;;;;;;;;1017131;29;1014;-17
2021/11/29 01:37:48;;;;;;;;;;;;;;;;;;1008970;29;954;-17
2021/11/29 01:38:19;;;;;;;;;;;;;;;;;;1009292;29;1132;-17
2021/11/29 01:38:49;;;;;;;;;;;;;;;;;;1009305;29;1044;-17
2021/11/29 01:39:20;;;;;;;;;;;;;;;;;;1005510;29;804;-17
2021/11/29 01:39:50;;;;;;;;;;;;;;;;;;1014005;29;941;-17
2021/11/29 01:40:21;;;;;;;;;;;;;;;;;;1014037;29;1004;-17
2021/11/29 01:40:51;;;;;;;;;;;;;;;;;;1013858;29;824;-17
2021/11/29 01:41:22;;;;;;;;;;;;;;;;;;1013960;29;1066;-17
2021/11/29 01:41:52;;;;;;;;;;;;;;;;;;1013821;29;1003;-17
2021/11/29 01:42:23;;;;;;;;;;;;;;;;;;1014052;29;829;-17
2021/11/29 01:43:05;;;;;;;;;;;;;;;;;;1013294;29;948;-17
2021/11/29 01:43:36;;;;;;;;;;;;;;;;;;1013012;29;1026;-17
2021/11/29 01:44:06;;;;;;;;;;;;;;;;;;1013177;29;993;-17
2021/11/29 01:44:37;;;;;;;;;;;;;;;;;;1013592;29;924;-17
2021/11/29 01:45:08;;;;;;;;;;;;;;;;;;1013913;29;1006;-17
2021/11/29 01:45:39;;;;;;;;;;;;;;;;;;1014082;29;982;-17
2021/11/29 01:46:10;;;;;;;;;;;;;;;;;;1013565;29;939;-17
2021/11/29 01:46:42;;;;;;;;;;;;;;;;;;1014022;29;946;-17
2021/11/29 01:47:12;;;;;;;;;;;;;;;;;;1013771;29;1010;-17
2021/11/29 01:47:42;;;;;;;;;;;;;;;;;;1013665;29;1378;-17
2021/11/29 01:48:13;;;;;;;;;;;;;;;;;;1013925;29;929;-17
2021/11/29 01:48:44;;;;;;;;;;;;;;;;;;1013910;29;1405;-17
2021/11/29 01:49:14;;;;;;;;;;;;;;;;;;1013528;29;1076;-17
2021/11/29 01:49:44;;;;;;;;;;;;;;;;;;1014212;29;952;-17
2021/11/29 01:50:15;;;;;;;;;;;;;;;;;;1013495;29;1220;-17
2021/11/29 01:50:47;;;;;;;;;;;;;;;;;;1014100;29;1005;-17
2021/11/29 01:51:18;;;;;;;;;;;;;;;;;;1013896;29;990;-17
2021/11/29 01:51:48;;;;;;;;;;;;;;;;;;1014014;29;824;-17
2021/11/29 01:52:19;;;;;;;;;;;;;;;;;;1014033;29;947;-17
2021/11/29 01:52:49;;;;;;;;;;;;;;;;;;1013549;29;1253;-17
2021/11/29 01:53:21;;;;;;;;;;;;;;;;;;1013908;29;939;-17
2021/11/29 01:53:51;;;;;;;;;;;;;;;;;;1013988;29;996;-17
2021/11/29 01:54:22;;;;;;;;;;;;;;;;;;1013713;29;991;-17
2021/11/29 01:54:52;;;;;;;;;;;;;;;;;;1013931;29;902;-17
2021/11/29 01:55:23;;;;;;;;;;;;;;;;;;1014017;29;990;-17
2021/11/29 01:55:57;;;;;;;;;;;;;;;;;;1013890;29;793;-17
2021/11/29 01:56:28;;;;;;;;;;;;;;;;;;1013940;29;1915;-17
2021/11/29 01:56:58;;;;;;;;;;;;;;;;;;1016990;29;1049;-17
2021/11/29 01:57:28;;;;;;;;;;;;;;;;;;1017150;29;1065;-17
2021/11/29 01:57:59;;;;;;;;;;;;;;;;;;1017089;29;1456;-17
2021/11/29 01:58:32;;;;;;;;;;;;;;;;;;1016861;29;1046;-17
2021/11/29 01:59:03;;;;;;;;;;;;;;;;;;1013759;29;1273;-18
2021/11/29 01:59:34;;;;;;;;;;;;;;;;;;1013701;29;1082;-17
2021/11/29 02:00:06;;;;;;;;;;;;;;;;;;1013946;29;973;-17
2021/11/29 02:01:01;;;;;;;;;;;;;;;;;;1013882;29;1027;-17
2021/11/29 02:01:32;;;;;;;;;;;;;;;;;;1013383;29;1086;-17
2021/11/29 02:02:03;;;;;;;;;;;;;;;;;;1013881;29;1096;-17
2021/11/29 02:02:34;;;;;;;;;;;;;;;;;;1013521;29;950;-18
2021/11/29 02:03:04;;;;;;;;;;;;;;;;;;1015544;29;1041;-17
2021/11/29 02:03:35;;;;;;;;;;;;;;;;;;1016998;29;1277;-17
2021/11/29 02:04:08;;;;;;;;;;;;;;;;;;1017610;29;814;-17
2021/11/29 02:04:38;;;;;;;;;;;;;;;;;;1017892;29;991;-17
2021/11/29 02:05:09;;;;;;;;;;;;;;;;;;1017711;29;942;-17
2021/11/29 02:05:39;;;;;;;;;;;;;;;;;;1017912;29;913;-17
2021/11/29 02:06:10;;;;;;;;;;;;;;;;;;1017494;29;1033;-18
2021/11/29 02:06:41;;;;;;;;;;;;;;;;;;1017741;29;1644;-17
2021/11/29 02:07:12;;;;;;;;;;;;;;;;;;1017418;29;1364;-17
2021/11/29 02:07:42;;;;;;;;;;;;;;;;;;1020956;29;1141;-17
2021/11/29 02:08:12;;;;;;;;;;;;;;;;;;1021733;29;824;-18
2021/11/29 02:08:43;;;;;;;;;;;;;;;;;;1015031;29;1260;-17
2021/11/29 02:09:14;;;;;;;;;;;;;;;;;;1016901;29;1611;-17
2021/11/29 02:09:44;;;;;;;;;;;;;;;;;;1016870;29;1253;-17
2021/11/29 02:10:15;;;;;;;;;;;;;;;;;;1016910;29;1045;-17
2021/11/29 02:10:46;;;;;;;;;;;;;;;;;;1017746;29;1017;-17
2021/11/29 02:11:16;;;;;;;;;;;;;;;;;;1017679;29;1014;-17
2021/11/29 02:11:47;;;;;;;;;;;;;;;;;;1017786;29;929;-17
2021/11/29 02:12:18;;;;;;;;;;;;;;;;;;1017725;29;1353;-17
2021/11/29 02:12:48;;;;;;;;;;;;;;;;;;1017572;29;1257;-18
2021/11/29 02:13:19;;;;;;;;;;;;;;;;;;1017585;29;1018;-17
2021/11/29 02:13:50;;;;;;;;;;;;;;;;;;1017779;29;989;-18
2021/11/29 02:14:21;;;;;;;;;;;;;;;;;;1017511;29;942;-17
2021/11/29 02:14:51;;;;;;;;;;;;;;;;;;1018142;29;862;-17
2021/11/29 02:15:22;;;;;;;;;;;;;;;;;;1017665;29;903;-17
2021/11/29 02:15:53;;;;;;;;;;;;;;;;;;1017782;29;919;-17
2021/11/29 02:16:24;;;;;;;;;;;;;;;;;;1012875;29;1907;-17
2021/11/29 02:16:55;;;;;;;;;;;;;;;;;;1013132;29;1009;-17
2021/11/29 02:17:25;;;;;;;;;;;;;;;;;;1013156;29;1125;-17
2021/11/29 02:17:57;;;;;;;;;;;;;;;;;;1013284;29;939;-17
2021/11/29 02:18:28;;;;;;;;;;;;;;;;;;1017634;29;910;-17
2021/11/29 02:18:59;;;;;;;;;;;;;;;;;;1017719;29;1014;-17
2021/11/29 02:19:29;;;;;;;;;;;;;;;;;;1017586;29;971;-17
2021/11/29 02:20:00;;;;;;;;;;;;;;;;;;1017838;29;862;-17
2021/11/29 02:20:31;;;;;;;;;;;;;;;;;;1017762;29;870;-17
2021/11/29 02:21:03;;;;;;;;;;;;;;;;;;1017495;29;904;-18
2021/11/29 02:21:34;;;;;;;;;;;;;;;;;;1017879;29;855;-17
2021/11/29 02:22:05;;;;;;;;;;;;;;;;;;1017673;29;885;-17
2021/11/29 02:22:36;;;;;;;;;;;;;;;;;;1016851;29;950;-17
2021/11/29 02:23:06;;;;;;;;;;;;;;;;;;1016890;29;1317;-17
2021/11/29 02:23:41;;;;;;;;;;;;;;;;;;1016992;29;1118;-17
2021/11/29 02:24:11;;;;;;;;;;;;;;;;;;1017078;29;943;-17
2021/11/29 02:24:42;;;;;;;;;;;;;;;;;;1017639;29;1042;-17
2021/11/29 02:25:15;;;;;;;;;;;;;;;;;;1017834;29;850;-17
2021/11/29 02:25:45;;;;;;;;;;;;;;;;;;1017532;29;953;-17
2021/11/29 02:26:17;;;;;;;;;;;;;;;;;;1017941;29;951;-17
2021/11/29 02:26:48;;;;;;;;;;;;;;;;;;1016796;29;1010;-17
2021/11/29 02:27:18;;;;;;;;;;;;;;;;;;1016943;29;1057;-17
2021/11/29 02:27:50;;;;;;;;;;;;;;;;;;1016767;29;1002;-17
2021/11/29 02:28:21;;;;;;;;;;;;;;;;;;1016696;29;1293;-17
2021/11/29 02:29:03;;;;;;;;;;;;;;;;;;1017832;29;1093;-17
2021/11/29 02:29:34;;;;;;;;;;;;;;;;;;1017642;29;919;-17
2021/11/29 02:30:05;;;;;;;;;;;;;;;;;;1017629;29;1163;-17
2021/11/29 02:30:36;;;;;;;;;;;;;;;;;;1017829;29;919;-17
2021/11/29 02:31:08;;;;;;;;;;;;;;;;;;1017612;29;1090;-17
2021/11/29 02:31:57;;;;;;;;;;;;;;;;;;1017782;29;906;-17
2021/11/29 02:32:27;;;;;;;;;;;;;;;;;;1017393;29;953;-17
2021/11/29 02:32:58;;;;;;;;;;;;;;;;;;1017995;29;934;-17
2021/11/29 02:33:28;;;;;;;;;;;;;;;;;;1017356;29;1085;-17
2021/11/29 02:34:04;;;;;;;;;;;;;;;;;;1017824;29;1001;-17
2021/11/29 02:35:06;;;;;;;;;;;;;;;;;;1016772;29;1216;-17
2021/11/29 02:35:37;;;;;;;;;;;;;;;;;;1017361;29;1130;-17
2021/11/29 02:36:07;;;;;;;;;;;;;;;;;;1017518;29;1041;-17
2021/11/29 02:36:38;;;;;;;;;;;;;;;;;;1017466;29;1990;-17
2021/11/29 02:37:08;;;;;;;;;;;;;;;;;;1017666;29;927;-17
2021/11/29 02:37:39;;;;;;;;;;;;;;;;;;1017640;29;859;-17
2021/11/29 02:38:10;;;;;;;;;;;;;;;;;;1017668;29;915;-17
2021/11/29 02:38:41;;;;;;;;;;;;;;;;;;1016960;29;967;-17
2021/11/29 02:39:12;;;;;;;;;;;;;;;;;;1016860;29;946;-17
2021/11/29 02:39:43;;;;;;;;;;;;;;;;;;1017240;29;936;-17
2021/11/29 02:40:13;;;;;;;;;;;;;;;;;;1016849;29;1054;-17
2021/11/29 02:40:44;;;;;;;;;;;;;;;;;;1017505;29;985;-17
2021/11/29 02:41:14;;;;;;;;;;;;;;;;;;1017647;29;959;-17
2021/11/29 02:41:46;;;;;;;;;;;;;;;;;;1017618;29;885;-17
2021/11/29 02:42:16;;;;;;;;;;;;;;;;;;1017701;29;943;-17
2021/11/29 02:42:47;;;;;;;;;;;;;;;;;;1017440;29;950;-17
2021/11/29 02:43:17;;;;;;;;;;;;;;;;;;1017547;29;807;-17
2021/11/29 02:43:47;;;;;;;;;;;;;;;;;;1017408;29;1105;-17
2021/11/29 02:44:18;;;;;;;;;;;;;;;;;;1012965;29;990;-17
2021/11/29 02:44:49;;;;;;;;;;;;;;;;;;1012737;29;1143;-17
2021/11/29 02:45:20;;;;;;;;;;;;;;;;;;1013278;29;886;-17
2021/11/29 02:45:51;;;;;;;;;;;;;;;;;;1012775;29;871;-17
2021/11/29 02:46:21;;;;;;;;;;;;;;;;;;1017683;29;971;-17
2021/11/29 02:46:51;;;;;;;;;;;;;;;;;;1017485;29;900;-17
2021/11/29 02:47:22;;;;;;;;;;;;;;;;;;1017765;29;886;-17
2021/11/29 02:47:52;;;;;;;;;;;;;;;;;;1017649;29;895;-17
2021/11/29 02:48:41;;;;;;;;;;;;;;;;;;1017697;29;891;-17
2021/11/29 02:49:13;;;;;;;;;;;;;;;;;;1017426;29;848;-17
2021/11/29 02:49:43;;;;;;;;;;;;;;;;;;1017632;29;931;-17
2021/11/29 02:50:14;;;;;;;;;;;;;;;;;;1017610;29;962;-17
2021/11/29 02:50:44;;;;;;;;;;;;;;;;;;1017518;29;815;-17
2021/11/29 02:51:22;;;;;;;;;;;;;;;;;;1017761;29;889;-17
2021/11/29 02:51:54;;;;;;;;;;;;;;;;;;1017397;29;990;-17
2021/11/29 02:52:26;;;;;;;;;;;;;;;;;;1017751;29;851;-17
2021/11/29 02:52:56;;;;;;;;;;;;;;;;;;1017380;29;1208;-17
2021/11/29 02:53:26;;;;;;;;;;;;;;;;;;1017432;29;1157;-17
2021/11/29 02:54:00;;;;;;;;;;;;;;;;;;1017695;29;939;-17
2021/11/29 02:54:32;;;;;;;;;;;;;;;;;;1017421;29;1030;-17
2021/11/29 02:55:03;;;;;;;;;;;;;;;;;;1017489;29;918;-17
2021/11/29 02:55:34;;;;;;;;;;;;;;;;;;1017685;29;1062;-17
2021/11/29 02:56:04;;;;;;;;;;;;;;;;;;1017414;29;930;-17
2021/11/29 02:56:40;;;;;;;;;;;;;;;;;;1017430;29;1910;-17
2021/11/29 02:57:12;;;;;;;;;;;;;;;;;;1017559;29;1065;-17
2021/11/29 02:57:43;;;;;;;;;;;;;;;;;;1017347;29;1054;-17
2021/11/29 02:58:14;;;;;;;;;;;;;;;;;;1012929;29;1054;-17
2021/11/29 02:58:44;;;;;;;;;;;;;;;;;;1012936;29;1134;-17
2021/11/29 02:59:16;;;;;;;;;;;;;;;;;;1012919;29;1044;-17
2021/11/29 02:59:47;;;;;;;;;;;;;;;;;;1009420;29;1156;-17
2021/11/29 03:00:18;;;;;;;;;;;;;;;;;;1016989;29;1037;-17
2021/11/29 03:00:48;;;;;;;;;;;;;;;;;;1016789;29;953;-17
2021/11/29 03:01:19;;;;;;;;;;;;;;;;;;1017013;29;913;-17
2021/11/29 03:01:50;;;;;;;;;;;;;;;;;;1017569;29;840;-17
2021/11/29 03:02:21;;;;;;;;;;;;;;;;;;1017625;29;1242;-17
2021/11/29 03:03:01;;;;;;;;;;;;;;;;;;1017647;29;1007;-17
2021/11/29 03:03:32;;;;;;;;;;;;;;;;;;1009647;29;968;-17
2021/11/29 03:04:02;;;;;;;;;;;;;;;;;;1009546;29;843;-17
2021/11/29 03:04:33;;;;;;;;;;;;;;;;;;1010008;29;1083;-17
2021/11/29 03:05:04;;;;;;;;;;;;;;;;;;1008242;29;1358;-17
2021/11/29 03:05:36;;;;;;;;;;;;;;;;;;1009095;29;1088;-17
2021/11/29 03:06:06;;;;;;;;;;;;;;;;;;1008605;29;1051;-17
2021/11/29 03:06:36;;;;;;;;;;;;;;;;;;1008933;29;1084;-17
2021/11/29 03:07:07;;;;;;;;;;;;;;;;;;1009763;29;1145;-17
2021/11/29 03:07:38;;;;;;;;;;;;;;;;;;1009817;29;999;-17
2021/11/29 03:08:08;;;;;;;;;;;;;;;;;;1009561;29;993;-17
2021/11/29 03:08:40;;;;;;;;;;;;;;;;;;1009819;29;832;-17
2021/11/29 03:09:10;;;;;;;;;;;;;;;;;;1009434;29;883;-17
2021/11/29 03:09:41;;;;;;;;;;;;;;;;;;1009829;29;1036;-17
2021/11/29 03:10:12;;;;;;;;;;;;;;;;;;1009662;29;928;-17
2021/11/29 03:10:42;;;;;;;;;;;;;;;;;;1009772;29;923;-17
2021/11/29 03:11:13;;;;;;;;;;;;;;;;;;1009929;29;918;-17
2021/11/29 03:11:44;;;;;;;;;;;;;;;;;;1009522;29;942;-17
2021/11/29 03:12:14;;;;;;;;;;;;;;;;;;1009848;29;919;-17
2021/11/29 03:12:45;;;;;;;;;;;;;;;;;;1009500;29;966;-17
2021/11/29 03:13:15;;;;;;;;;;;;;;;;;;1009866;29;966;-17
2021/11/29 03:13:46;;;;;;;;;;;;;;;;;;1009756;29;943;-17
2021/11/29 03:14:17;;;;;;;;;;;;;;;;;;1009645;29;808;-17
2021/11/29 03:14:48;;;;;;;;;;;;;;;;;;1009631;29;1059;-17
2021/11/29 03:15:19;;;;;;;;;;;;;;;;;;1009877;29;1096;-17
2021/11/29 03:15:49;;;;;;;;;;;;;;;;;;1009426;29;864;-19
2021/11/29 03:16:20;;;;;;;;;;;;;;;;;;1009959;29;1973;-17
2021/11/29 03:16:53;;;;;;;;;;;;;;;;;;1009455;29;1024;-17
2021/11/29 03:17:24;;;;;;;;;;;;;;;;;;1009871;29;891;-17
2021/11/29 03:17:54;;;;;;;;;;;;;;;;;;1009842;29;925;-17
2021/11/29 03:18:31;;;;;;;;;;;;;;;;;;1009412;29;819;-17
2021/11/29 03:19:02;;;;;;;;;;;;;;;;;;1009442;29;1017;-17
2021/11/29 03:19:35;;;;;;;;;;;;;;;;;;1009573;29;1319;-17
2021/11/29 03:20:09;;;;;;;;;;;;;;;;;;1009616;29;1019;-17
2021/11/29 03:20:42;;;;;;;;;;;;;;;;;;1009900;29;832;-17
2021/11/29 03:21:15;;;;;;;;;;;;;;;;;;1009782;29;1013;-17
2021/11/29 03:21:46;;;;;;;;;;;;;;;;;;1009843;29;868;-18
2021/11/29 03:22:17;;;;;;;;;;;;;;;;;;1009499;29;1265;-17
2021/11/29 03:22:47;;;;;;;;;;;;;;;;;;1009614;29;1172;-17
2021/11/29 03:23:18;;;;;;;;;;;;;;;;;;1009662;29;1082;-17
2021/11/29 03:23:51;;;;;;;;;;;;;;;;;;1009715;29;841;-17
2021/11/29 03:24:21;;;;;;;;;;;;;;;;;;1009383;29;956;-17
2021/11/29 03:24:51;;;;;;;;;;;;;;;;;;1009877;29;804;-17
2021/11/29 03:25:22;;;;;;;;;;;;;;;;;;1012824;29;1051;-17
2021/11/29 03:25:53;;;;;;;;;;;;;;;;;;1012960;29;943;-17
2021/11/29 03:26:24;;;;;;;;;;;;;;;;;;1012773;29;924;-17
2021/11/29 03:26:55;;;;;;;;;;;;;;;;;;1008917;29;1334;-17
2021/11/29 03:27:25;;;;;;;;;;;;;;;;;;1009116;29;942;-17
2021/11/29 03:27:56;;;;;;;;;;;;;;;;;;1009334;29;882;-17
2021/11/29 03:28:26;;;;;;;;;;;;;;;;;;1008955;29;942;-17
2021/11/29 03:28:58;;;;;;;;;;;;;;;;;;1008561;29;1670;-17
2021/11/29 03:29:29;;;;;;;;;;;;;;;;;;1008903;29;1148;-17
2021/11/29 03:29:59;;;;;;;;;;;;;;;;;;1008964;29;1263;-17
2021/11/29 03:30:30;;;;;;;;;;;;;;;;;;1009102;29;1017;-17
2021/11/29 03:31:00;;;;;;;;;;;;;;;;;;1009421;29;893;-17
2021/11/29 03:31:32;;;;;;;;;;;;;;;;;;1009716;29;1006;-17
2021/11/29 03:32:04;;;;;;;;;;;;;;;;;;1009559;29;891;-17
2021/11/29 03:32:36;;;;;;;;;;;;;;;;;;1009745;29;848;-17
2021/11/29 03:33:07;;;;;;;;;;;;;;;;;;1009497;29;1109;-17
2021/11/29 03:33:38;;;;;;;;;;;;;;;;;;1009896;29;1046;-17
2021/11/29 03:34:10;;;;;;;;;;;;;;;;;;1009347;29;840;-17
2021/11/29 03:34:41;;;;;;;;;;;;;;;;;;1009220;29;960;-17
2021/11/29 03:35:12;;;;;;;;;;;;;;;;;;1008697;29;1053;-17
2021/11/29 03:35:43;;;;;;;;;;;;;;;;;;1009107;29;931;-17
2021/11/29 03:36:14;;;;;;;;;;;;;;;;;;1008992;29;938;-17
2021/11/29 03:36:45;;;;;;;;;;;;;;;;;;1009466;29;1988;-17
2021/11/29 03:37:16;;;;;;;;;;;;;;;;;;1009377;29;975;-17
2021/11/29 03:37:46;;;;;;;;;;;;;;;;;;1009785;29;1100;-17
2021/11/29 03:38:17;;;;;;;;;;;;;;;;;;1009684;29;1017;-18
2021/11/29 03:38:47;;;;;;;;;;;;;;;;;;1009837;29;881;-17
2021/11/29 03:39:22;;;;;;;;;;;;;;;;;;1009584;29;859;-17
2021/11/29 03:39:52;;;;;;;;;;;;;;;;;;1012878;29;968;-17
2021/11/29 03:40:22;;;;;;;;;;;;;;;;;;1012952;29;971;-17